createdAt,value
2023-01-09T00:01:41.357Z,6.60
2023-01-09T00:04:12.609Z,6.60
2023-01-09T00:06:40.346Z,6.60
2023-01-09T00:09:07.648Z,6.60
2023-01-09T00:11:34.604Z,6.60
2023-01-09T00:14:01.594Z,6.60
2023-01-09T00:16:28.755Z,6.60
2023-01-09T00:19:00.400Z,6.50
2023-01-09T00:21:27.510Z,6.50
2023-01-09T00:23:55.247Z,6.50
2023-01-09T00:26:22.641Z,6.50
2023-01-09T00:28:54.478Z,6.40
2023-01-09T00:31:22.278Z,6.40
2023-01-09T00:34:00.777Z,6.40
2023-01-09T00:36:28.550Z,6.40
2023-01-09T00:38:55.902Z,6.40
2023-01-09T00:41:58.154Z,6.40
2023-01-09T00:44:42.665Z,6.50
2023-01-09T00:47:15.593Z,6.50
2023-01-09T00:49:43.866Z,6.50
2023-01-09T00:52:12.661Z,6.50
2023-01-09T00:54:40.844Z,6.50
2023-01-09T00:57:10.057Z,6.40
2023-01-09T00:59:37.096Z,6.40
2023-01-09T01:02:04.227Z,6.40
2023-01-09T01:04:49.832Z,6.40
2023-01-09T01:07:35.205Z,6.40
2023-01-09T01:10:02.439Z,6.50
2023-01-09T01:12:29.434Z,6.50
2023-01-09T01:14:56.369Z,6.50
2023-01-09T01:17:23.476Z,6.50
2023-01-09T01:19:50.465Z,6.60
2023-01-09T01:22:17.455Z,6.50
2023-01-09T01:24:44.447Z,6.60
2023-01-09T01:27:11.388Z,6.60
2023-01-09T01:29:38.380Z,6.60
2023-01-09T01:32:05.474Z,6.60
2023-01-09T01:34:32.548Z,6.60
2023-01-09T01:36:59.584Z,6.60
2023-01-09T01:39:26.565Z,6.60
2023-01-09T01:41:53.529Z,6.70
2023-01-09T01:45:04.307Z,6.70
2023-01-09T01:47:55.630Z,6.70
2023-01-09T01:50:47.380Z,6.70
2023-01-09T01:53:39.880Z,6.80
2023-01-09T01:56:27.722Z,6.80
2023-01-09T01:59:24.985Z,6.90
2023-01-09T02:01:56.924Z,6.90
2023-01-09T02:04:24.123Z,6.90
2023-01-09T02:06:54.138Z,6.90
2023-01-09T02:09:22.967Z,6.90
2023-01-09T02:11:56.714Z,6.90
2023-01-09T02:14:28.183Z,6.90
2023-01-09T02:17:26.398Z,6.90
2023-01-09T02:20:26.573Z,6.90
2023-01-09T02:23:43.320Z,6.90
2023-01-09T02:26:47.468Z,6.90
2023-01-09T02:30:16.362Z,6.90
2023-01-09T02:33:17.949Z,6.90
2023-01-09T02:36:09.509Z,6.90
2023-01-09T02:39:02.281Z,6.80
2023-01-09T02:42:04.079Z,6.80
2023-01-09T02:44:34.473Z,6.70
2023-01-09T02:47:07.558Z,6.70
2023-01-09T02:49:38.353Z,6.70
2023-01-09T02:52:27.171Z,6.70
2023-01-09T02:55:10.775Z,6.60
2023-01-09T02:57:53.204Z,6.70
2023-01-09T03:00:50.303Z,6.60
2023-01-09T03:04:09.570Z,6.60
2023-01-09T03:06:47.359Z,6.60
2023-01-09T03:09:20.418Z,6.60
2023-01-09T03:11:55.950Z,6.70
2023-01-09T03:14:26.225Z,6.70
2023-01-09T03:17:02.845Z,6.80
2023-01-09T03:19:32.184Z,6.90
2023-01-09T03:21:59.513Z,7.00
2023-01-09T03:24:29.468Z,7.00
2023-01-09T03:26:56.478Z,7.10
2023-01-09T03:29:23.463Z,7.00
2023-01-09T03:31:51.504Z,7.00
2023-01-09T03:34:18.592Z,7.00
2023-01-09T03:36:45.564Z,7.00
2023-01-09T03:39:12.524Z,7.00
2023-01-09T03:41:39.618Z,7.10
2023-01-09T03:44:15.898Z,7.10
2023-01-09T03:46:42.869Z,7.10
2023-01-09T03:49:09.812Z,7.10
2023-01-09T03:51:36.898Z,7.20
2023-01-09T03:54:03.901Z,7.10
2023-01-09T03:56:30.856Z,7.20
2023-01-09T03:58:57.916Z,7.20
2023-01-09T04:01:24.983Z,7.20
2023-01-09T04:03:53.085Z,7.20
2023-01-09T04:06:20.129Z,7.20
2023-01-09T04:08:47.108Z,7.30
2023-01-09T04:11:14.282Z,7.30
2023-01-09T04:13:41.301Z,7.30
2023-01-09T04:16:08.501Z,7.40
2023-01-09T04:18:36.090Z,7.40
2023-01-09T04:21:06.022Z,7.50
2023-01-09T04:23:33.000Z,7.50
2023-01-09T04:25:59.930Z,7.50
2023-01-09T04:28:26.879Z,7.40
2023-01-09T04:30:53.821Z,7.40
2023-01-09T04:33:20.780Z,7.40
2023-01-09T04:35:47.956Z,7.40
2023-01-09T04:38:14.891Z,7.40
2023-01-09T04:40:41.882Z,7.40
2023-01-09T04:43:08.776Z,7.40
2023-01-09T04:45:35.779Z,7.40
2023-01-09T04:48:02.787Z,7.30
2023-01-09T04:50:31.334Z,7.30
2023-01-09T04:52:58.609Z,7.30
2023-01-09T04:55:25.541Z,7.30
2023-01-09T04:57:52.470Z,7.30
2023-01-09T05:00:19.824Z,7.40
2023-01-09T05:02:46.872Z,7.40
2023-01-09T05:05:13.877Z,7.40
2023-01-09T05:07:40.904Z,7.40
2023-01-09T05:10:10.121Z,7.40
2023-01-09T05:12:37.412Z,7.40
2023-01-09T05:15:06.278Z,7.50
2023-01-09T05:17:33.468Z,7.50
2023-01-09T05:20:01.108Z,7.50
2023-01-09T05:22:28.746Z,7.60
2023-01-09T05:24:55.845Z,7.60
2023-01-09T05:27:22.877Z,7.50
2023-01-09T05:29:49.851Z,7.60
2023-01-09T05:32:39.755Z,7.60
2023-01-09T05:35:07.725Z,7.60
2023-01-09T05:37:34.807Z,7.60
2023-01-09T05:40:01.802Z,7.60
2023-01-09T05:42:28.743Z,7.70
2023-01-09T05:44:55.672Z,7.60
2023-01-09T05:47:22.662Z,7.70
2023-01-09T05:49:49.661Z,7.70
2023-01-09T05:52:16.630Z,7.70
2023-01-09T05:54:43.619Z,7.70
2023-01-09T05:57:10.564Z,7.70
2023-01-09T05:59:37.567Z,7.70
2023-01-09T06:02:04.543Z,7.80
2023-01-09T06:04:31.545Z,7.70
2023-01-09T06:06:58.588Z,7.80
2023-01-09T06:09:25.656Z,7.70
2023-01-09T06:11:54.891Z,7.80
2023-01-09T06:14:22.071Z,7.80
2023-01-09T06:16:49.169Z,7.80
2023-01-09T06:19:16.400Z,7.80
2023-01-09T06:21:43.450Z,7.70
2023-01-09T06:24:10.457Z,7.70
2023-01-09T06:26:37.492Z,7.80
2023-01-09T06:29:04.602Z,7.80
2023-01-09T06:31:31.727Z,7.80
2023-01-09T06:33:58.687Z,7.80
2023-01-09T06:36:25.777Z,7.80
2023-01-09T06:38:52.719Z,7.80
2023-01-09T06:41:19.648Z,7.80
2023-01-09T06:43:46.620Z,7.90
2023-01-09T06:46:13.610Z,7.80
2023-01-09T06:48:40.580Z,7.80
2023-01-09T06:51:07.742Z,7.80
2023-01-09T06:53:35.195Z,7.80
2023-01-09T06:56:02.970Z,7.80
2023-01-09T06:58:29.957Z,7.80
2023-01-09T07:00:59.435Z,7.80
2023-01-09T07:03:26.426Z,7.80
2023-01-09T07:05:53.633Z,7.80
2023-01-09T07:08:20.675Z,7.80
2023-01-09T07:10:47.714Z,7.80
2023-01-09T07:13:14.688Z,7.70
2023-01-09T07:15:41.673Z,7.70
2023-01-09T07:18:08.664Z,7.70
2023-01-09T07:20:35.764Z,7.70
2023-01-09T07:23:02.745Z,7.70
2023-01-09T07:25:29.731Z,7.70
2023-01-09T07:27:56.644Z,7.70
2023-01-09T07:30:23.666Z,7.70
2023-01-09T07:32:50.650Z,7.70
2023-01-09T07:35:17.623Z,7.70
2023-01-09T07:37:44.575Z,7.70
2023-01-09T07:40:12.232Z,7.80
2023-01-09T07:42:39.241Z,7.80
2023-01-09T07:45:07.135Z,7.80
2023-01-09T07:47:34.108Z,7.80
2023-01-09T07:50:02.106Z,7.80
2023-01-09T07:52:29.035Z,7.80
2023-01-09T07:54:55.971Z,7.80
2023-01-09T07:57:23.100Z,7.80
2023-01-09T07:59:50.104Z,7.80
2023-01-09T08:02:18.171Z,7.80
2023-01-09T08:04:45.210Z,7.80
2023-01-09T08:07:12.283Z,7.70
2023-01-09T08:09:39.432Z,7.70
2023-01-09T08:12:06.433Z,7.70
2023-01-09T08:14:33.416Z,7.60
2023-01-09T08:17:00.421Z,7.60
2023-01-09T08:19:27.391Z,7.60
2023-01-09T08:21:54.312Z,7.60
2023-01-09T08:24:21.403Z,7.60
2023-01-09T08:26:48.357Z,7.60
2023-01-09T08:29:15.355Z,7.60
2023-01-09T08:31:42.448Z,7.60
2023-01-09T08:34:09.535Z,7.60
2023-01-09T08:36:36.595Z,7.50
2023-01-09T08:39:03.750Z,7.50
2023-01-09T08:41:49.109Z,7.60
2023-01-09T08:44:34.622Z,7.60
2023-01-09T08:47:07.421Z,7.50
2023-01-09T08:49:38.992Z,7.50
2023-01-09T08:52:07.492Z,7.50
2023-01-09T08:54:36.967Z,7.50
2023-01-09T08:57:04.070Z,7.50
2023-01-09T08:59:31.141Z,7.50
2023-01-09T09:01:58.564Z,7.50
2023-01-09T09:04:26.190Z,7.50
2023-01-09T09:06:53.151Z,7.60
2023-01-09T09:09:20.227Z,7.50
2023-01-09T09:11:50.440Z,7.50
2023-01-09T09:14:35.736Z,7.50
2023-01-09T09:17:02.782Z,7.50
2023-01-09T09:19:29.697Z,7.60
2023-01-09T09:21:56.669Z,7.60
2023-01-09T09:24:23.597Z,7.60
2023-01-09T09:26:50.558Z,7.60
2023-01-09T09:29:17.500Z,7.70
2023-01-09T09:31:44.496Z,7.70
2023-01-09T09:34:12.912Z,7.70
2023-01-09T09:36:39.885Z,7.70
2023-01-09T09:39:08.433Z,7.70
2023-01-09T09:42:12.030Z,7.70
2023-01-09T09:44:54.516Z,7.70
2023-01-09T09:47:43.345Z,7.70
2023-01-09T09:50:27.739Z,7.70
2023-01-09T09:53:13.591Z,7.70
2023-01-09T09:55:42.237Z,7.70
2023-01-09T09:58:23.311Z,7.70
2023-01-09T10:00:51.168Z,7.70
2023-01-09T10:03:44.998Z,7.70
2023-01-09T10:06:53.034Z,7.70
2023-01-09T10:09:51.989Z,7.70
2023-01-09T10:12:44.644Z,7.70
2023-01-09T10:15:19.368Z,7.70
2023-01-09T10:18:07.392Z,7.70
2023-01-09T10:21:07.325Z,7.70
2023-01-09T10:24:26.277Z,7.80
2023-01-09T10:26:54.150Z,7.80
2023-01-09T10:29:51.469Z,7.80
2023-01-09T10:32:52.540Z,7.80
2023-01-09T10:35:48.432Z,7.80
2023-01-09T10:38:24.655Z,7.90
2023-01-09T10:41:38.717Z,7.90
2023-01-09T10:44:41.135Z,7.80
2023-01-09T10:47:35.902Z,7.80
2023-01-09T10:50:25.214Z,7.80
2023-01-09T10:52:55.005Z,7.80
2023-01-09T10:55:39.813Z,7.80
2023-01-09T10:58:14.187Z,7.80
2023-01-09T11:00:42.240Z,7.90
2023-01-09T11:03:14.990Z,7.90
2023-01-09T11:05:43.108Z,7.90
2023-01-09T11:08:11.676Z,7.90
2023-01-09T11:10:57.542Z,8.00
2023-01-09T11:13:31.912Z,8.00
2023-01-09T11:16:19.017Z,8.10
2023-01-09T11:18:59.293Z,8.10
2023-01-09T11:21:42.044Z,8.20
2023-01-09T11:24:21.523Z,8.30
2023-01-09T11:26:52.876Z,8.30
2023-01-09T11:29:27.471Z,8.40
2023-01-09T11:32:00.486Z,8.50
2023-01-09T11:34:36.647Z,8.50
2023-01-09T11:37:21.326Z,8.60
2023-01-09T11:39:48.305Z,8.60
2023-01-09T11:42:44.680Z,8.70
2023-01-09T11:45:31.011Z,8.80
2023-01-09T11:47:58.936Z,8.80
2023-01-09T11:50:29.184Z,8.90
2023-01-09T11:53:19.049Z,9.00
2023-01-09T11:55:56.861Z,9.00
2023-01-09T11:58:24.127Z,9.10
2023-01-09T12:01:36.166Z,9.20
2023-01-09T12:04:46.957Z,9.30
2023-01-09T12:07:41.637Z,9.50
2023-01-09T12:10:31.793Z,9.70
2023-01-09T12:13:23.521Z,9.90
2023-01-09T12:16:21.152Z,10.00
2023-01-09T12:19:55.959Z,9.90
2023-01-09T12:23:00.611Z,9.90
2023-01-09T12:25:54.414Z,9.80
2023-01-09T12:28:55.397Z,9.70
2023-01-09T12:31:28.077Z,9.80
2023-01-09T12:34:28.038Z,9.70
2023-01-09T12:37:13.155Z,9.70
2023-01-09T12:39:51.511Z,9.60
2023-01-09T12:42:34.209Z,9.60
2023-01-09T12:45:24.092Z,9.50
2023-01-09T12:47:52.723Z,9.60
2023-01-09T12:50:39.372Z,9.60
2023-01-09T12:53:23.298Z,9.60
2023-01-09T12:56:00.752Z,9.90
2023-01-09T12:58:49.781Z,10.20
2023-01-09T13:01:44.945Z,10.40
2023-01-09T13:04:20.163Z,10.30
2023-01-09T13:07:23.010Z,10.10
2023-01-09T13:10:33.214Z,9.80
2023-01-09T13:13:08.113Z,9.70
2023-01-09T13:15:58.917Z,9.50
2023-01-09T13:18:42.515Z,9.50
2023-01-09T13:21:12.173Z,9.50
2023-01-09T13:24:01.964Z,9.60
2023-01-09T13:26:30.130Z,9.70
2023-01-09T13:29:19.166Z,9.90
2023-01-09T13:32:11.788Z,9.80
2023-01-09T13:34:39.496Z,9.70
2023-01-09T13:37:28.148Z,9.60
2023-01-09T13:40:17.090Z,9.50
2023-01-09T13:42:47.119Z,9.30
2023-01-09T13:45:27.208Z,9.20
2023-01-09T13:48:14.492Z,9.10
2023-01-09T13:50:42.567Z,9.10
2023-01-09T13:53:18.669Z,9.00
2023-01-09T13:55:58.032Z,9.00
2023-01-09T13:58:31.887Z,8.90
2023-01-09T14:01:27.439Z,9.00
2023-01-09T14:04:14.671Z,9.00
2023-01-09T14:06:44.940Z,8.90
2023-01-09T14:09:21.312Z,8.90
2023-01-09T14:11:49.386Z,8.90
2023-01-09T14:14:45.435Z,8.90
2023-01-09T14:17:30.413Z,9.00
2023-01-09T14:20:00.741Z,9.00
2023-01-09T14:22:42.356Z,9.00
2023-01-09T14:25:25.293Z,9.00
2023-01-09T14:27:54.965Z,9.00
2023-01-09T14:30:27.668Z,9.00
2023-01-09T14:33:25.936Z,9.10
2023-01-09T14:36:21.735Z,9.10
2023-01-09T14:38:52.990Z,9.10
2023-01-09T14:42:06.424Z,9.00
2023-01-09T14:45:00.732Z,8.90
2023-01-09T14:47:30.705Z,8.80
2023-01-09T14:50:11.567Z,8.80
2023-01-09T14:52:48.475Z,8.80
2023-01-09T14:55:46.331Z,8.80
2023-01-09T14:58:33.036Z,8.80
2023-01-09T15:01:12.003Z,8.70
2023-01-09T15:03:51.575Z,8.70
2023-01-09T15:06:31.369Z,8.60
2023-01-09T15:09:08.914Z,8.60
2023-01-09T15:11:39.900Z,8.60
2023-01-09T15:14:10.218Z,8.60
2023-01-09T15:16:37.422Z,8.60
2023-01-09T15:19:07.985Z,8.60
2023-01-09T15:21:34.971Z,8.50
2023-01-09T15:24:28.859Z,8.40
2023-01-09T15:27:11.448Z,8.30
2023-01-09T15:29:38.445Z,8.20
2023-01-09T15:32:26.462Z,8.10
2023-01-09T15:34:55.767Z,8.20
2023-01-09T15:37:34.496Z,8.10
2023-01-09T15:40:04.573Z,8.10
2023-01-09T15:42:57.590Z,8.00
2023-01-09T15:45:42.826Z,7.90
2023-01-09T15:48:18.555Z,7.90
2023-01-09T15:50:49.326Z,7.90
2023-01-09T15:53:22.546Z,7.80
2023-01-09T15:56:33.484Z,7.80
2023-01-09T15:59:01.301Z,7.80
2023-01-09T16:01:31.797Z,7.70
2023-01-09T16:04:05.091Z,7.70
2023-01-09T16:06:37.221Z,7.70
2023-01-09T16:09:08.251Z,7.60
2023-01-09T16:11:39.017Z,7.60
2023-01-09T16:14:34.700Z,7.60
2023-01-09T16:17:16.008Z,7.60
2023-01-09T16:19:50.229Z,7.60
2023-01-09T16:22:29.877Z,7.60
2023-01-09T16:25:28.152Z,7.60
2023-01-09T16:28:21.075Z,7.70
2023-01-09T16:31:27.503Z,7.70
2023-01-09T16:34:14.821Z,7.70
2023-01-09T16:36:41.833Z,7.80
2023-01-09T16:39:15.111Z,7.80
2023-01-09T16:42:02.091Z,7.80
2023-01-09T16:44:29.055Z,7.70
2023-01-09T16:46:56.210Z,7.70
2023-01-09T16:49:26.895Z,7.60
2023-01-09T16:51:55.250Z,7.60
2023-01-09T16:54:22.534Z,7.60
2023-01-09T16:56:52.692Z,7.60
2023-01-09T16:59:26.281Z,7.50
2023-01-09T17:01:54.814Z,7.50
2023-01-09T17:04:23.941Z,7.50
2023-01-09T17:06:51.654Z,7.50
2023-01-09T17:09:24.078Z,7.50
2023-01-09T17:11:52.239Z,7.50
2023-01-09T17:14:19.212Z,7.50
2023-01-09T17:16:46.822Z,7.50
2023-01-09T17:19:19.193Z,7.50
2023-01-09T17:21:47.041Z,7.50
2023-01-09T17:24:33.042Z,7.50
2023-01-09T17:27:19.451Z,7.50
2023-01-09T17:29:46.608Z,7.50
2023-01-09T17:32:16.050Z,7.40
2023-01-09T17:34:43.710Z,7.40
2023-01-09T17:37:19.548Z,7.40
2023-01-09T17:39:46.800Z,7.40
2023-01-09T17:42:13.818Z,7.50
2023-01-09T17:44:40.805Z,7.50
2023-01-09T17:47:15.544Z,7.50
2023-01-09T17:49:42.615Z,7.60
2023-01-09T17:52:09.658Z,7.60
2023-01-09T17:54:36.646Z,7.50
2023-01-09T17:57:03.878Z,7.50
2023-01-09T17:59:31.302Z,7.50
2023-01-09T18:01:58.277Z,7.40
2023-01-09T18:04:25.366Z,7.40
2023-01-09T18:06:54.604Z,7.40
2023-01-09T18:09:21.588Z,7.40
2023-01-09T18:11:48.589Z,7.50
2023-01-09T18:14:17.089Z,7.50
2023-01-09T18:16:45.383Z,7.50
2023-01-09T18:19:12.684Z,7.50
2023-01-09T18:21:39.670Z,7.50
2023-01-09T18:24:07.386Z,7.50
2023-01-09T18:26:34.369Z,7.50
2023-01-09T18:29:02.045Z,7.40
2023-01-09T18:31:30.437Z,7.30
2023-01-09T18:34:02.411Z,7.30
2023-01-09T18:36:30.193Z,7.30
2023-01-09T18:39:00.523Z,7.20
2023-01-09T18:41:28.573Z,7.20
2023-01-09T18:43:59.149Z,7.20
2023-01-09T18:46:30.637Z,7.20
2023-01-09T18:49:03.616Z,7.20
2023-01-09T18:51:34.103Z,7.20
2023-01-09T18:54:01.113Z,7.30
2023-01-09T18:56:28.346Z,7.30
2023-01-09T18:58:57.551Z,7.30
2023-01-09T19:01:29.071Z,7.30
2023-01-09T19:03:57.702Z,7.30
2023-01-09T19:06:25.662Z,7.30
2023-01-09T19:08:52.993Z,7.30
2023-01-09T19:11:19.961Z,7.30
2023-01-09T19:13:47.249Z,7.30
2023-01-09T19:16:14.564Z,7.40
2023-01-09T19:18:43.087Z,7.40
2023-01-09T19:21:22.195Z,7.40
2023-01-09T19:23:49.803Z,7.30
2023-01-09T19:26:26.177Z,7.20
2023-01-09T19:28:57.946Z,7.20
2023-01-09T19:31:28.450Z,7.10
2023-01-09T19:33:56.611Z,7.00
2023-01-09T19:36:23.698Z,7.00
2023-01-09T19:38:59.965Z,6.90
2023-01-09T19:41:28.610Z,6.90
2023-01-09T19:43:55.809Z,6.90
2023-01-09T19:46:25.085Z,6.90
2023-01-09T19:48:53.053Z,7.00
2023-01-09T19:51:21.968Z,7.00
2023-01-09T19:53:55.466Z,7.00
2023-01-09T19:56:24.475Z,7.00
2023-01-09T19:59:01.128Z,7.10
2023-01-09T20:01:35.387Z,7.10
2023-01-09T20:04:10.090Z,7.10
2023-01-09T20:06:42.247Z,7.10
2023-01-09T20:09:12.151Z,7.10
2023-01-09T20:11:41.364Z,7.10
2023-01-09T20:14:13.793Z,7.10
2023-01-09T20:16:41.908Z,7.10
2023-01-09T20:19:12.524Z,7.10
2023-01-09T20:21:39.776Z,7.10
2023-01-09T20:24:08.760Z,7.00
2023-01-09T20:26:37.401Z,7.00
2023-01-09T20:29:04.791Z,7.00
2023-01-09T20:31:32.985Z,6.90
2023-01-09T20:34:00.336Z,6.90
2023-01-09T20:36:30.373Z,6.90
2023-01-09T20:39:00.322Z,6.80
2023-01-09T20:41:29.423Z,6.80
2023-01-09T20:44:00.839Z,6.70
2023-01-09T20:46:33.752Z,6.70
2023-01-09T20:49:06.559Z,6.60
2023-01-09T20:51:35.831Z,6.60
2023-01-09T20:54:03.727Z,6.50
2023-01-09T20:56:31.859Z,6.40
2023-01-09T20:58:59.985Z,6.40
2023-01-09T21:01:28.109Z,6.40
2023-01-09T21:03:56.722Z,6.30
2023-01-09T21:06:25.684Z,6.20
2023-01-09T21:08:53.173Z,6.20
2023-01-09T21:11:21.891Z,6.20
2023-01-09T21:13:49.619Z,6.20
2023-01-09T21:16:21.745Z,6.10
2023-01-09T21:18:49.498Z,6.10
2023-01-09T21:21:27.324Z,6.10
2023-01-09T21:23:58.048Z,6.10
2023-01-09T21:26:28.975Z,6.00
2023-01-09T21:28:58.343Z,6.00
2023-01-09T21:31:33.615Z,5.90
2023-01-09T21:34:07.095Z,5.90
2023-01-09T21:36:38.117Z,5.90
2023-01-09T21:39:08.014Z,5.90
2023-01-09T21:41:54.249Z,5.90
2023-01-09T21:44:39.709Z,5.90
2023-01-09T21:47:06.674Z,5.90
2023-01-09T21:49:35.203Z,5.90
2023-01-09T21:52:04.595Z,6.00
2023-01-09T21:54:32.246Z,6.00
2023-01-09T21:57:04.086Z,6.00
2023-01-09T21:59:31.231Z,6.10
2023-01-09T22:01:58.770Z,6.10
2023-01-09T22:04:28.793Z,6.20
2023-01-09T22:06:56.380Z,6.30
2023-01-09T22:09:23.371Z,6.30
2023-01-09T22:11:50.430Z,6.30
2023-01-09T22:14:19.169Z,6.20
2023-01-09T22:16:47.042Z,6.20
2023-01-09T22:19:17.985Z,6.20
2023-01-09T22:21:45.655Z,6.10
2023-01-09T22:24:18.220Z,6.10
2023-01-09T22:26:45.760Z,6.00
2023-01-09T22:29:12.821Z,5.90
2023-01-09T22:31:40.647Z,5.80
2023-01-09T22:34:19.025Z,5.70
2023-01-09T22:36:46.915Z,5.60
2023-01-09T22:39:16.657Z,5.50
2023-01-09T22:41:44.039Z,5.50
2023-01-09T22:44:12.695Z,5.40
2023-01-09T22:46:40.058Z,5.30
2023-01-09T22:49:07.108Z,5.30
2023-01-09T22:51:34.208Z,5.30
2023-01-09T22:54:01.460Z,5.20
2023-01-09T22:56:28.793Z,5.20
2023-01-09T22:58:59.051Z,5.30
2023-01-09T23:01:25.985Z,5.20
2023-01-09T23:03:53.298Z,5.20
2023-01-09T23:06:22.908Z,5.20
2023-01-09T23:08:51.943Z,5.30
2023-01-09T23:11:44.881Z,5.30
2023-01-09T23:14:12.688Z,5.40
2023-01-09T23:16:40.822Z,5.50
2023-01-09T23:19:14.415Z,5.60
2023-01-09T23:21:42.259Z,5.70
2023-01-09T23:24:09.416Z,5.70
2023-01-09T23:26:38.772Z,5.70
2023-01-09T23:29:08.769Z,5.80
2023-01-09T23:31:36.737Z,5.80
2023-01-09T23:34:05.380Z,5.80
2023-01-09T23:36:32.427Z,5.80
2023-01-09T23:38:59.814Z,5.80
2023-01-09T23:41:45.188Z,5.70
2023-01-09T23:44:12.157Z,5.80
2023-01-09T23:46:39.091Z,5.80
2023-01-09T23:49:06.053Z,5.80
2023-01-09T23:51:33.388Z,5.80
2023-01-09T23:54:00.385Z,5.80
2023-01-09T23:56:27.982Z,5.70
2023-01-09T23:58:54.945Z,5.70
